createdAt,value
2018-01-07T00:00:36.883Z,7.06
2018-01-07T00:05:38.243Z,7.05
2018-01-07T00:10:39.554Z,7.11
2018-01-07T00:15:40.878Z,7.03
2018-01-07T00:20:42.219Z,7.06
2018-01-07T00:25:43.540Z,7.08
2018-01-07T00:30:45.612Z,6.95
2018-01-07T00:35:46.939Z,6.95
2018-01-07T00:40:49.026Z,7.11
2018-01-07T00:45:50.380Z,7.08
2018-01-07T00:50:51.735Z,6.91
2018-01-07T00:56:00.681Z,6.84
2018-01-07T01:01:02.094Z,6.70
2018-01-07T01:06:04.183Z,6.75
2018-01-07T01:11:05.490Z,6.70
2018-01-07T01:16:07.552Z,6.63
2018-01-07T01:21:08.862Z,6.68
2018-01-07T01:26:10.172Z,6.67
2018-01-07T01:31:12.235Z,6.62
2018-01-07T01:36:13.596Z,6.63
2018-01-07T01:41:14.933Z,6.65
2018-01-07T01:46:16.264Z,6.61
2018-01-07T01:51:17.599Z,6.66
2018-01-07T01:56:18.941Z,6.63
2018-01-07T02:01:20.286Z,6.64
2018-01-07T02:06:21.635Z,6.62
2018-01-07T02:11:23.778Z,6.51
2018-01-07T02:16:25.131Z,6.33
2018-01-07T02:21:26.462Z,6.21
2018-01-07T02:26:27.779Z,6.27
2018-01-07T02:31:38.996Z,6.24
2018-01-07T02:36:40.304Z,6.18
2018-01-07T02:41:42.360Z,6.09
2018-01-07T02:46:43.652Z,5.81
2018-01-07T02:51:44.985Z,5.75
2018-01-07T02:56:47.044Z,5.54
2018-01-07T03:01:48.416Z,5.38
2018-01-07T03:06:49.747Z,5.50
2018-01-07T03:11:51.074Z,5.35
2018-01-07T03:16:52.439Z,5.26
2018-01-07T03:21:53.779Z,5.12
2018-01-07T03:26:55.140Z,5.07
2018-01-07T03:31:56.460Z,4.93
2018-01-07T03:36:57.774Z,5.04
2018-01-07T03:41:59.082Z,4.98
2018-01-07T03:47:01.143Z,4.86
2018-01-07T03:52:02.471Z,4.99
2018-01-07T03:57:03.865Z,4.91
2018-01-07T04:02:05.251Z,4.74
2018-01-07T04:07:06.738Z,4.71
2018-01-07T04:12:08.189Z,4.67
2018-01-07T04:17:09.711Z,4.66
2018-01-07T04:22:11.268Z,4.72
2018-01-07T04:27:12.765Z,4.71
2018-01-07T04:32:14.161Z,4.61
2018-01-07T04:37:15.609Z,4.68
2018-01-07T04:42:17.080Z,4.48
2018-01-07T04:47:18.615Z,4.46
2018-01-07T04:52:19.940Z,4.38
2018-01-07T04:57:21.446Z,4.50
2018-01-07T05:02:23.014Z,4.52
2018-01-07T05:07:24.522Z,4.50
2018-01-07T05:12:25.982Z,4.57
2018-01-07T05:17:27.375Z,4.39
2018-01-07T05:22:28.903Z,4.31
2018-01-07T05:27:30.433Z,4.29
2018-01-07T05:32:31.943Z,4.15
2018-01-07T05:37:33.500Z,4.09
2018-01-07T05:42:34.989Z,4.01
2018-01-07T05:47:36.508Z,4.10
2018-01-07T05:52:38.028Z,3.99
2018-01-07T05:57:39.845Z,4.02
2018-01-07T06:02:41.431Z,3.93
2018-01-07T06:07:42.964Z,3.95
2018-01-07T06:12:44.504Z,3.97
2018-01-07T06:17:46.872Z,3.79
2018-01-07T06:22:49.180Z,3.86
2018-01-07T06:27:50.815Z,3.92
2018-01-07T06:32:52.438Z,3.92
2018-01-07T06:37:54.110Z,3.86
2018-01-07T06:42:56.419Z,3.70
2018-01-07T06:47:57.959Z,3.82
2018-01-07T06:52:59.482Z,3.98
2018-01-07T06:58:01.028Z,3.78
2018-01-07T07:03:02.379Z,4.00
2018-01-07T07:08:03.707Z,3.89
2018-01-07T07:13:05.058Z,3.85
2018-01-07T07:18:06.432Z,3.76
2018-01-07T07:23:07.751Z,3.71
2018-01-07T07:28:09.888Z,3.75
2018-01-07T07:33:11.227Z,3.87
2018-01-07T07:38:12.576Z,3.77
2018-01-07T07:43:13.916Z,3.79
2018-01-07T07:48:15.266Z,3.69
2018-01-07T07:53:16.579Z,4.03
2018-01-07T07:58:18.263Z,4.02
2018-01-07T08:03:19.618Z,3.83
2018-01-07T08:08:20.941Z,3.80
2018-01-07T08:13:22.330Z,3.81
2018-01-07T08:18:23.672Z,3.79
2018-01-07T08:23:25.751Z,3.98
2018-01-07T08:28:27.055Z,3.99
2018-01-07T08:33:29.131Z,4.03
2018-01-07T08:38:30.477Z,3.96
2018-01-07T08:43:31.848Z,3.88
2018-01-07T08:48:33.204Z,3.98
2018-01-07T08:53:34.738Z,4.02
2018-01-07T08:58:37.011Z,4.03
2018-01-07T09:03:38.348Z,4.06
2018-01-07T09:08:40.438Z,4.21
2018-01-07T09:13:42.514Z,4.17
2018-01-07T09:18:43.865Z,4.16
2018-01-07T09:23:45.193Z,4.10
2018-01-07T09:28:46.504Z,4.07
2018-01-07T09:33:48.458Z,4.09
2018-01-07T09:38:49.853Z,4.07
2018-01-07T09:43:51.218Z,3.87
2018-01-07T09:48:53.252Z,3.98
2018-01-07T09:53:54.718Z,4.05
2018-01-07T09:58:56.772Z,3.98
2018-01-07T10:03:58.067Z,4.10
2018-01-07T10:08:59.383Z,4.24
2018-01-07T10:14:00.708Z,4.22
2018-01-07T10:19:02.036Z,4.39
2018-01-07T10:24:03.415Z,4.39
2018-01-07T10:29:04.756Z,4.29
2018-01-07T10:34:06.842Z,4.32
2018-01-07T10:39:08.999Z,4.39
2018-01-07T10:44:10.339Z,4.24
2018-01-07T10:49:11.660Z,4.43
2018-01-07T10:54:13.000Z,4.25
2018-01-07T10:59:14.365Z,4.33
2018-01-07T11:04:15.688Z,4.41
2018-01-07T11:09:17.056Z,4.36
2018-01-07T11:14:18.396Z,4.57
2018-01-07T11:19:20.470Z,4.80
2018-01-07T11:24:21.884Z,5.08
2018-01-07T11:29:23.961Z,5.11
2018-01-07T11:34:25.293Z,4.97
2018-01-07T11:39:27.427Z,5.07
2018-01-07T11:44:28.855Z,5.13
2018-01-07T11:49:30.197Z,5.23
2018-01-07T11:54:31.608Z,5.31
2018-01-07T11:59:33.770Z,5.62
2018-01-07T12:04:35.994Z,5.36
2018-01-07T12:09:37.468Z,5.31
2018-01-07T12:14:38.860Z,5.44
2018-01-07T12:19:41.050Z,5.41
2018-01-07T12:24:42.379Z,5.38
2018-01-07T12:29:45.474Z,5.51
2018-01-07T12:34:50.823Z,5.39
2018-01-07T12:39:53.969Z,5.47
2018-01-07T12:44:55.344Z,5.52
2018-01-07T12:49:56.760Z,5.36
2018-01-07T12:54:58.116Z,5.33
2018-01-07T12:59:59.458Z,5.51
2018-01-07T13:05:00.880Z,5.20
2018-01-07T13:10:02.312Z,5.02
2018-01-07T13:15:03.684Z,5.45
2018-01-07T13:20:05.057Z,5.16
2018-01-07T13:25:06.395Z,4.96
2018-01-07T13:30:07.858Z,4.84
2018-01-07T13:35:09.232Z,4.99
2018-01-07T13:40:10.791Z,5.13
2018-01-07T13:45:12.275Z,5.11
2018-01-07T13:50:13.648Z,4.96
2018-01-07T13:55:15.418Z,5.03
2018-01-07T14:00:17.601Z,4.95
2018-01-07T14:05:19.660Z,4.98
2018-01-07T14:10:21.024Z,5.04
2018-01-07T14:15:22.354Z,5.26
2018-01-07T14:20:23.655Z,5.22
2018-01-07T14:25:24.979Z,5.15
2018-01-07T14:30:26.334Z,5.16
2018-01-07T14:35:27.633Z,5.29
2018-01-07T14:40:28.976Z,5.35
2018-01-07T14:45:30.311Z,5.25
2018-01-07T14:50:31.633Z,5.02
2018-01-07T14:55:32.961Z,4.85
2018-01-07T15:00:34.374Z,4.74
2018-01-07T15:05:35.908Z,4.68
2018-01-07T15:10:37.573Z,4.74
2018-01-07T15:15:38.901Z,4.58
2018-01-07T15:20:40.456Z,4.60
2018-01-07T15:25:41.789Z,4.23
2018-01-07T15:30:43.145Z,4.37
2018-01-07T15:35:45.182Z,4.27
2018-01-07T15:40:46.506Z,4.12
2018-01-07T15:45:47.890Z,4.02
2018-01-07T15:50:49.473Z,3.83
2018-01-07T15:55:50.834Z,3.91
2018-01-07T16:00:52.176Z,4.04
2018-01-07T16:05:53.577Z,3.76
2018-01-07T16:10:54.890Z,3.64
2018-01-07T16:15:56.990Z,3.77
2018-01-07T16:20:58.355Z,3.74
2018-01-07T16:25:59.678Z,3.60
2018-01-07T16:31:01.020Z,3.70
2018-01-07T16:36:02.356Z,3.72
2018-01-07T16:41:04.445Z,3.39
2018-01-07T16:46:05.752Z,3.53
2018-01-07T16:51:07.828Z,3.59
2018-01-07T16:56:09.132Z,3.46
2018-01-07T17:01:10.500Z,3.35
2018-01-07T17:06:11.846Z,3.25
2018-01-07T17:11:13.197Z,3.00
2018-01-07T17:16:14.572Z,2.80
2018-01-07T17:21:15.887Z,3.16
2018-01-07T17:26:17.197Z,2.95
2018-01-07T17:31:19.293Z,2.89
2018-01-07T17:36:21.372Z,2.88
2018-01-07T17:41:22.688Z,2.81
2018-01-07T17:46:24.836Z,3.00
2018-01-07T17:51:26.201Z,2.86
2018-01-07T17:56:27.589Z,2.87
2018-01-07T18:01:29.692Z,2.83
2018-01-07T18:06:31.799Z,2.86
2018-01-07T18:11:33.883Z,2.84
2018-01-07T18:16:35.211Z,2.70
2018-01-07T18:21:36.619Z,2.57
2018-01-07T18:26:37.933Z,2.60
2018-01-07T18:31:39.316Z,2.66
2018-01-07T18:36:40.692Z,2.64
2018-01-07T18:41:42.385Z,2.65
2018-01-07T18:46:43.751Z,2.58
2018-01-07T18:51:45.079Z,2.46
2018-01-07T18:56:46.404Z,2.52
2018-01-07T19:01:52.638Z,2.34
2018-01-07T19:06:53.988Z,2.29
2018-01-07T19:11:55.316Z,2.34
2018-01-07T19:16:57.021Z,2.15
2018-01-07T19:21:58.405Z,2.27
2018-01-07T19:27:00.457Z,2.30
2018-01-07T19:32:01.786Z,2.24
2018-01-07T19:37:03.132Z,2.31
2018-01-07T19:42:05.061Z,2.29
2018-01-07T19:47:06.530Z,2.24
2018-01-07T19:52:07.930Z,2.44
2018-01-07T19:57:11.031Z,2.36
2018-01-07T20:02:12.389Z,2.48
2018-01-07T20:07:14.515Z,2.43
2018-01-07T20:12:15.845Z,2.34
2018-01-07T20:17:17.535Z,2.48
2018-01-07T20:22:18.877Z,2.39
2018-01-07T20:27:20.211Z,2.48
2018-01-07T20:32:21.593Z,2.61
2018-01-07T20:37:22.930Z,2.90
2018-01-07T20:42:24.404Z,2.73
2018-01-07T20:47:25.798Z,2.60
2018-01-07T20:52:27.166Z,2.55
2018-01-07T20:57:28.523Z,2.65
2018-01-07T21:02:29.885Z,2.79
2018-01-07T21:07:38.854Z,2.66
2018-01-07T21:12:40.968Z,2.74
2018-01-07T21:17:43.057Z,2.83
2018-01-07T21:22:44.472Z,3.03
2018-01-07T21:27:45.979Z,2.85
2018-01-07T21:32:47.311Z,2.75
2018-01-07T21:37:48.654Z,2.93
2018-01-07T21:42:50.058Z,2.66
2018-01-07T21:47:51.359Z,2.74
2018-01-07T21:52:52.783Z,2.82
2018-01-07T21:57:54.261Z,2.72
2018-01-07T22:02:55.672Z,2.60
2018-01-07T22:07:56.986Z,2.53
2018-01-07T22:12:59.285Z,2.45
2018-01-07T22:18:00.609Z,2.42
2018-01-07T22:23:01.991Z,2.40
2018-01-07T22:28:03.359Z,2.29
2018-01-07T22:33:05.426Z,2.30
2018-01-07T22:38:06.768Z,2.02
2018-01-07T22:43:08.267Z,2.17
2018-01-07T22:48:09.603Z,2.22
2018-01-07T22:53:11.007Z,1.92
2018-01-07T22:58:12.464Z,1.97
2018-01-07T23:03:13.843Z,1.93
2018-01-07T23:08:15.196Z,2.01
2018-01-07T23:13:16.506Z,1.77
2018-01-07T23:18:17.837Z,1.85
2018-01-07T23:23:19.191Z,1.77
2018-01-07T23:28:20.529Z,1.76
2018-01-07T23:33:21.864Z,1.81
2018-01-07T23:38:24.007Z,1.75
2018-01-07T23:43:25.320Z,1.73
2018-01-07T23:48:26.658Z,1.70
2018-01-07T23:53:27.958Z,1.75
2018-01-07T23:58:29.324Z,1.64
